createdAt,value
2023-01-17T00:02:33.254Z,13.13
2023-01-17T00:05:53.953Z,14.95
2023-01-17T00:09:14.771Z,13.37
2023-01-17T00:12:16.986Z,13.18
2023-01-17T00:15:20.107Z,13.25
2023-01-17T00:18:22.382Z,13.70
2023-01-17T00:21:43.036Z,12.95
2023-01-17T00:25:03.834Z,12.23
2023-01-17T00:28:06.146Z,13.38
2023-01-17T00:31:09.440Z,13.43
2023-01-17T00:38:03.308Z,13.55
2023-01-17T00:41:37.134Z,12.20
2023-01-17T00:45:19.324Z,13.55
2023-01-17T00:49:11.980Z,12.57
2023-01-17T00:56:08.485Z,13.05
2023-01-17T00:59:45.616Z,12.82
2023-01-17T01:03:30.043Z,12.20
2023-01-17T01:06:56.219Z,12.43
2023-01-17T01:10:17.786Z,11.93
2023-01-17T01:17:54.878Z,11.67
2023-01-17T01:21:38.916Z,12.25
2023-01-17T01:25:20.027Z,11.75
2023-01-17T01:28:42.912Z,13.03
2023-01-17T01:36:14.811Z,11.50
2023-01-17T01:39:21.993Z,12.00
2023-01-17T01:56:14.307Z,12.45
2023-01-17T01:59:20.971Z,12.40
2023-01-17T02:02:23.378Z,11.10
2023-01-17T02:05:27.661Z,12.93
2023-01-17T02:08:30.189Z,12.88
2023-01-17T02:11:33.800Z,13.40
2023-01-17T02:14:35.978Z,12.02
2023-01-17T02:18:08.730Z,12.57
2023-01-17T02:21:35.082Z,12.95
2023-01-17T02:24:55.971Z,11.90
2023-01-17T02:28:19.835Z,12.00
2023-01-17T02:31:31.976Z,12.32
2023-01-17T02:34:47.572Z,12.30
2023-01-17T02:38:03.170Z,12.82
2023-01-17T02:41:08.896Z,13.68
2023-01-17T02:44:16.401Z,13.05
2023-01-17T02:47:27.259Z,12.70
2023-01-17T02:50:43.127Z,12.38
2023-01-17T02:54:05.541Z,13.05
2023-01-17T02:57:42.811Z,12.63
2023-01-17T03:01:06.913Z,12.10
2023-01-17T03:04:22.163Z,11.10
2023-01-17T03:07:26.483Z,11.37
2023-01-17T03:10:30.816Z,10.63
2023-01-17T03:13:33.023Z,11.80
2023-01-17T03:16:35.453Z,11.23
2023-01-17T03:19:37.834Z,10.07
2023-01-17T03:22:40.040Z,10.80
2023-01-17T03:25:42.220Z,11.07
2023-01-17T03:28:45.299Z,10.17
2023-01-17T03:31:47.480Z,10.73
2023-01-17T03:34:49.707Z,10.07
2023-01-17T03:38:14.809Z,10.10
2023-01-17T03:41:18.925Z,9.38
2023-01-17T03:44:22.897Z,10.10
2023-01-17T03:47:25.148Z,10.73
2023-01-17T03:50:27.423Z,10.00
2023-01-17T03:53:30.692Z,10.45
2023-01-17T03:56:32.819Z,9.70
2023-01-17T03:59:35.111Z,9.57
2023-01-17T04:02:37.330Z,9.35
2023-01-17T04:05:39.497Z,8.88
2023-01-17T04:08:41.778Z,8.93
2023-01-17T04:11:44.016Z,9.07
2023-01-17T04:14:46.154Z,8.32
2023-01-17T04:17:48.322Z,9.20
2023-01-17T04:20:51.553Z,9.15
2023-01-17T04:23:53.725Z,8.65
2023-01-17T04:26:55.930Z,8.88
2023-01-17T04:29:58.058Z,8.03
2023-01-17T04:33:00.347Z,8.65
2023-01-17T04:36:02.502Z,8.43
2023-01-17T04:39:04.841Z,8.67
2023-01-17T04:42:06.963Z,8.57
2023-01-17T04:45:09.447Z,7.93
2023-01-17T04:48:12.755Z,8.15
2023-01-17T04:51:15.279Z,7.80
2023-01-17T04:54:17.616Z,7.30
2023-01-17T04:57:20.137Z,6.68
2023-01-17T05:00:24.154Z,6.37
2023-01-17T05:03:26.992Z,5.95
2023-01-17T05:06:29.178Z,5.25
2023-01-17T05:09:31.679Z,5.63
2023-01-17T05:12:33.906Z,5.40
2023-01-17T05:15:36.448Z,5.53
2023-01-17T05:18:38.729Z,5.60
2023-01-17T05:21:40.905Z,5.53
2023-01-17T05:24:44.640Z,4.95
2023-01-17T05:27:46.829Z,4.72
2023-01-17T05:30:49.067Z,4.73
2023-01-17T05:33:54.229Z,4.40
2023-01-17T05:36:56.539Z,5.03
2023-01-17T05:39:58.687Z,5.33
2023-01-17T05:43:01.633Z,4.95
2023-01-17T05:46:06.414Z,4.72
2023-01-17T05:49:08.815Z,5.18
2023-01-17T05:52:10.903Z,5.00
2023-01-17T05:55:13.010Z,5.65
2023-01-17T05:58:17.369Z,5.72
2023-01-17T06:01:19.760Z,5.13
2023-01-17T06:04:22.041Z,5.28
2023-01-17T06:07:24.225Z,5.47
2023-01-17T06:10:27.016Z,5.70
2023-01-17T06:13:29.266Z,5.15
2023-01-17T06:16:31.362Z,5.50
2023-01-17T06:19:33.519Z,5.70
2023-01-17T06:22:35.651Z,5.40
2023-01-17T06:25:43.696Z,5.38
2023-01-17T06:28:45.891Z,4.80
2023-01-17T06:31:48.097Z,5.63
2023-01-17T06:34:50.302Z,5.90
2023-01-17T06:37:55.457Z,5.38
2023-01-17T06:41:00.260Z,4.93
2023-01-17T06:44:03.564Z,4.32
2023-01-17T06:47:05.732Z,4.22
2023-01-17T06:50:10.642Z,4.28
2023-01-17T06:53:12.975Z,4.05
2023-01-17T06:56:15.251Z,3.85
2023-01-17T06:59:17.394Z,4.15
2023-01-17T07:02:19.782Z,3.80
2023-01-17T07:05:22.587Z,3.63
2023-01-17T07:08:27.888Z,3.90
2023-01-17T07:11:31.472Z,3.80
2023-01-17T07:14:35.841Z,3.70
2023-01-17T07:17:38.659Z,3.70
2023-01-17T07:20:43.852Z,3.13
2023-01-17T07:23:46.296Z,3.35
2023-01-17T07:26:49.830Z,3.70
2023-01-17T07:29:54.127Z,3.83
2023-01-17T07:32:56.548Z,3.73
2023-01-17T07:35:58.939Z,3.45
2023-01-17T07:39:01.278Z,3.50
2023-01-17T07:42:03.474Z,3.57
2023-01-17T07:45:06.798Z,3.58
2023-01-17T07:48:10.543Z,3.72
2023-01-17T07:51:12.957Z,3.88
2023-01-17T07:54:15.307Z,3.38
2023-01-17T07:57:17.850Z,3.13
2023-01-17T08:00:20.601Z,3.58
2023-01-17T08:03:32.247Z,3.33
2023-01-17T08:06:34.558Z,3.28
2023-01-17T08:09:36.823Z,3.55
2023-01-17T08:12:39.001Z,4.10
2023-01-17T08:15:41.282Z,3.05
2023-01-17T08:18:43.571Z,2.35
2023-01-17T08:21:45.802Z,1.77
2023-01-17T08:24:48.589Z,1.98
2023-01-17T08:27:57.278Z,2.00
2023-01-17T08:31:08.507Z,1.50
2023-01-17T08:34:10.847Z,1.37
2023-01-17T08:37:14.477Z,1.88
2023-01-17T08:40:20.884Z,1.45
2023-01-17T08:43:23.171Z,1.50
2023-01-17T08:46:25.776Z,1.30
2023-01-17T08:49:28.655Z,1.50
2023-01-17T08:52:30.990Z,1.92
2023-01-17T08:55:37.804Z,0.90
2023-01-17T08:58:46.497Z,1.25
2023-01-17T09:01:48.798Z,1.27
2023-01-17T09:05:11.444Z,0.83
2023-01-17T09:08:13.833Z,1.25
2023-01-17T09:11:18.239Z,1.20
2023-01-17T09:14:22.823Z,1.37
2023-01-17T09:17:29.298Z,0.98
2023-01-17T09:20:37.764Z,1.00
2023-01-17T09:23:39.931Z,0.73
2023-01-17T09:26:42.195Z,1.10
2023-01-17T09:29:44.422Z,1.30
2023-01-17T09:32:53.246Z,1.38
2023-01-17T09:36:01.293Z,1.10
2023-01-17T09:39:04.577Z,1.58
2023-01-17T09:42:19.304Z,1.35
2023-01-17T09:45:26.365Z,1.30
2023-01-17T09:48:36.366Z,1.08
2023-01-17T09:51:48.342Z,0.98
2023-01-17T09:55:08.493Z,1.33
2023-01-17T10:04:10.656Z,1.30
2023-01-17T10:08:02.017Z,0.98
2023-01-17T10:11:21.330Z,1.10
2023-01-17T10:15:08.435Z,0.95
2023-01-17T10:18:44.761Z,1.20
2023-01-17T10:22:07.496Z,1.40
2023-01-17T10:25:28.358Z,1.20
2023-01-17T10:28:35.655Z,1.02
2023-01-17T10:31:55.259Z,1.48
2023-01-17T10:35:01.432Z,1.38
2023-01-17T10:38:06.178Z,1.60
2023-01-17T10:41:18.499Z,1.30
2023-01-17T10:44:25.098Z,1.30
2023-01-17T10:47:31.277Z,1.15
2023-01-17T10:51:15.645Z,0.98
2023-01-17T10:59:50.388Z,1.88
2023-01-17T11:05:50.406Z,0.90
2023-01-17T11:09:10.847Z,1.15
2023-01-17T11:13:01.717Z,1.35
2023-01-17T11:16:58.165Z,1.33
2023-01-17T11:24:22.636Z,1.30
2023-01-17T11:28:04.554Z,1.17
2023-01-17T11:36:05.663Z,1.27
2023-01-17T11:40:00.937Z,1.05
2023-01-17T11:43:10.743Z,1.10
2023-01-17T11:46:23.709Z,0.90
2023-01-17T11:49:38.278Z,1.00
2023-01-17T11:53:07.951Z,1.13
2023-01-17T11:56:46.518Z,1.27
2023-01-17T12:00:13.670Z,0.90
2023-01-17T12:03:51.671Z,1.17
2023-01-17T12:06:59.766Z,1.00
2023-01-17T12:10:05.076Z,0.77
2023-01-17T12:13:48.756Z,1.10
2023-01-17T12:17:14.001Z,1.15
2023-01-17T12:20:35.547Z,1.15
2023-01-17T12:24:12.990Z,0.90
2023-01-17T12:28:19.718Z,1.58
2023-01-17T12:31:54.085Z,1.48
2023-01-17T12:35:00.775Z,0.93
2023-01-17T12:38:06.271Z,1.10
2023-01-17T12:41:18.427Z,1.08
2023-01-17T12:44:30.196Z,1.33
2023-01-17T12:47:36.245Z,1.20
2023-01-17T12:51:02.362Z,1.55
2023-01-17T12:54:23.599Z,1.38
2023-01-17T12:57:48.542Z,1.25
2023-01-17T13:01:12.607Z,1.55
2023-01-17T13:04:38.467Z,1.23
2023-01-17T13:07:47.335Z,1.43
2023-01-17T13:11:03.709Z,1.20
2023-01-17T13:14:09.038Z,1.60
2023-01-17T13:17:23.225Z,1.50
2023-01-17T13:20:33.744Z,1.80
2023-01-17T13:24:08.130Z,2.00
2023-01-17T13:27:32.068Z,1.50
2023-01-17T13:31:08.034Z,2.03
2023-01-17T13:34:32.804Z,2.13
2023-01-17T13:37:48.001Z,2.03
2023-01-17T13:41:01.034Z,1.50
2023-01-17T13:44:24.356Z,1.83
2023-01-17T13:47:27.581Z,2.63
2023-01-17T13:50:51.412Z,1.80
2023-01-17T13:54:30.939Z,1.80
2023-01-17T13:57:41.854Z,2.10
2023-01-17T14:00:44.018Z,2.20
2023-01-17T14:03:46.175Z,1.60
2023-01-17T14:06:55.498Z,2.20
2023-01-17T14:09:57.629Z,2.60
2023-01-17T14:13:02.803Z,2.40
2023-01-17T14:16:26.173Z,2.35
2023-01-17T14:19:28.434Z,2.13
2023-01-17T14:22:35.103Z,2.27
2023-01-17T14:25:41.418Z,1.83
2023-01-17T14:28:43.537Z,2.30
2023-01-17T14:31:46.579Z,2.40
2023-01-17T14:34:51.256Z,2.78
2023-01-17T14:37:54.320Z,2.15
2023-01-17T14:41:11.080Z,2.28
2023-01-17T14:44:13.277Z,2.33
2023-01-17T14:47:15.860Z,2.08
2023-01-17T14:50:17.983Z,1.88
2023-01-17T14:53:22.670Z,2.33
2023-01-17T14:56:26.918Z,2.20
2023-01-17T14:59:29.071Z,2.80
2023-01-17T15:02:31.528Z,2.70
2023-01-17T15:05:34.483Z,2.58
2023-01-17T15:08:36.762Z,3.10
2023-01-17T15:11:39.379Z,2.90
2023-01-17T15:14:45.817Z,2.37
2023-01-17T15:17:47.979Z,2.70
2023-01-17T15:20:57.128Z,2.70
2023-01-17T15:24:02.778Z,3.20
2023-01-17T15:27:06.449Z,3.53
2023-01-17T15:30:11.294Z,2.70
2023-01-17T15:33:16.998Z,2.70
2023-01-17T15:36:30.063Z,2.75
2023-01-17T15:39:34.968Z,2.97
2023-01-17T15:42:38.714Z,2.38
2023-01-17T15:45:41.271Z,2.47
2023-01-17T15:48:44.891Z,2.78
2023-01-17T15:52:14.623Z,2.47
2023-01-17T15:55:23.898Z,2.50
2023-01-17T15:58:28.954Z,2.15
2023-01-17T16:01:31.381Z,3.00
2023-01-17T16:04:34.859Z,2.60
2023-01-17T16:07:37.000Z,2.63
2023-01-17T16:10:39.498Z,2.80
2023-01-17T16:13:43.371Z,2.58
2023-01-17T16:16:52.426Z,2.90
2023-01-17T16:19:54.698Z,2.67
2023-01-17T16:22:57.198Z,2.75
2023-01-17T16:25:59.412Z,2.93
2023-01-17T16:29:01.573Z,2.10
2023-01-17T16:32:08.618Z,2.30
2023-01-17T16:35:19.034Z,2.97
2023-01-17T16:38:21.253Z,2.47
2023-01-17T16:41:23.481Z,2.30
2023-01-17T16:44:25.744Z,2.40
2023-01-17T16:47:27.962Z,2.30
2023-01-17T16:50:30.145Z,2.55
2023-01-17T16:53:32.378Z,2.50
2023-01-17T16:56:34.476Z,2.67
2023-01-17T16:59:49.963Z,2.60
2023-01-17T17:02:53.485Z,2.33
2023-01-17T17:05:59.346Z,2.42
2023-01-17T17:09:17.266Z,2.65
2023-01-17T17:12:19.385Z,2.72
2023-01-17T17:15:21.654Z,3.30
2023-01-17T17:18:23.962Z,3.20
2023-01-17T17:21:27.222Z,3.80
2023-01-17T17:24:29.348Z,3.50
2023-01-17T17:27:31.534Z,3.60
2023-01-17T17:30:34.553Z,3.40
2023-01-17T17:33:36.936Z,3.00
2023-01-17T17:36:39.474Z,2.90
2023-01-17T17:39:42.436Z,2.90
2023-01-17T17:42:44.544Z,2.83
2023-01-17T17:45:46.719Z,2.72
2023-01-17T17:48:49.126Z,2.07
2023-01-17T17:51:51.361Z,2.67
2023-01-17T17:54:53.685Z,2.40
2023-01-17T17:57:56.014Z,2.67
2023-01-17T18:01:01.833Z,2.40
2023-01-17T18:04:04.540Z,2.58
2023-01-17T18:07:06.751Z,3.10
2023-01-17T18:10:09.374Z,2.90
2023-01-17T18:13:11.577Z,3.65
2023-01-17T18:16:15.589Z,3.42
2023-01-17T18:19:23.478Z,3.40
2023-01-17T18:22:25.703Z,3.50
2023-01-17T18:25:27.894Z,3.03
2023-01-17T18:28:30.061Z,3.33
2023-01-17T18:31:32.443Z,3.10
2023-01-17T18:34:35.777Z,3.20
2023-01-17T18:37:38.025Z,3.03
2023-01-17T18:40:40.143Z,2.88
2023-01-17T18:43:42.654Z,3.17
2023-01-17T18:46:45.130Z,3.05
2023-01-17T18:49:53.611Z,2.80
2023-01-17T18:52:56.319Z,2.90
2023-01-17T18:56:00.969Z,2.53
2023-01-17T18:59:06.129Z,2.60
2023-01-17T19:02:09.044Z,2.63
2023-01-17T19:05:11.915Z,3.10
2023-01-17T19:08:15.729Z,2.92
2023-01-17T19:11:19.491Z,2.95
2023-01-17T19:14:21.638Z,3.00
2023-01-17T19:17:23.787Z,2.38
2023-01-17T19:20:25.881Z,3.10
2023-01-17T19:23:27.990Z,3.22
2023-01-17T19:26:30.206Z,3.20
2023-01-17T19:29:32.669Z,2.80
2023-01-17T19:32:34.987Z,3.20
2023-01-17T19:35:37.718Z,2.80
2023-01-17T19:38:40.247Z,3.25
2023-01-17T19:41:44.613Z,3.08
2023-01-17T19:44:46.824Z,3.20
2023-01-17T19:47:48.934Z,3.30
2023-01-17T19:50:51.101Z,2.77
2023-01-17T19:53:56.537Z,2.80
2023-01-17T19:56:58.734Z,2.83
2023-01-17T20:00:01.917Z,2.47
2023-01-17T20:03:05.603Z,2.92
2023-01-17T20:06:08.619Z,2.30
2023-01-17T20:09:12.937Z,2.42
2023-01-17T20:12:15.225Z,2.45
2023-01-17T20:15:17.498Z,2.60
2023-01-17T20:18:20.035Z,2.60
2023-01-17T20:21:23.880Z,1.97
2023-01-17T20:24:26.178Z,2.28
2023-01-17T20:27:28.351Z,2.20
2023-01-17T20:30:32.878Z,2.13
2023-01-17T20:33:36.238Z,1.50
2023-01-17T20:36:40.225Z,2.20
2023-01-17T20:39:42.418Z,1.90
2023-01-17T20:42:44.582Z,1.88
2023-01-17T20:45:54.292Z,1.92
2023-01-17T20:48:57.893Z,1.80
2023-01-17T20:52:00.942Z,1.70
2023-01-17T20:55:03.140Z,1.92
2023-01-17T20:58:05.574Z,1.70
2023-01-17T21:01:09.151Z,1.40
2023-01-17T21:04:11.546Z,1.75
2023-01-17T21:07:13.737Z,1.50
2023-01-17T21:10:16.423Z,1.70
2023-01-17T21:13:18.583Z,1.60
2023-01-17T21:16:22.934Z,1.60
2023-01-17T21:19:25.239Z,1.80
2023-01-17T21:22:28.851Z,1.37
2023-01-17T21:25:31.046Z,1.58
2023-01-17T21:28:37.216Z,1.50
2023-01-17T21:31:40.862Z,1.60
2023-01-17T21:34:43.006Z,1.67
2023-01-17T21:37:49.408Z,1.58
2023-01-17T21:40:56.391Z,1.65
2023-01-17T21:44:00.467Z,1.20
2023-01-17T21:47:03.380Z,1.58
2023-01-17T21:50:05.810Z,1.83
2023-01-17T21:53:09.933Z,1.63
2023-01-17T21:56:32.783Z,1.70
2023-01-17T21:59:35.036Z,1.80
2023-01-17T22:02:37.294Z,1.90
2023-01-17T22:05:39.522Z,2.13
2023-01-17T22:08:41.872Z,1.77
2023-01-17T22:11:44.031Z,1.85
2023-01-17T22:14:46.301Z,2.08
2023-01-17T22:17:48.469Z,2.17
2023-01-17T22:20:50.628Z,1.50
2023-01-17T22:23:55.069Z,2.00
2023-01-17T22:26:57.269Z,1.83
2023-01-17T22:29:59.446Z,1.73
2023-01-17T22:33:01.636Z,2.03
2023-01-17T22:36:05.040Z,1.90
2023-01-17T22:39:07.739Z,1.92
2023-01-17T22:42:10.016Z,2.10
2023-01-17T22:45:12.507Z,2.00
2023-01-17T22:48:14.637Z,1.90
2023-01-17T22:51:18.298Z,2.03
2023-01-17T22:54:20.505Z,1.67
2023-01-17T22:57:23.280Z,2.25
2023-01-17T23:00:25.417Z,1.80
2023-01-17T23:03:27.576Z,2.07
2023-01-17T23:06:37.915Z,1.98
2023-01-17T23:09:40.082Z,2.13
2023-01-17T23:12:42.239Z,2.00
2023-01-17T23:16:02.763Z,2.05
2023-01-17T23:19:25.183Z,2.08
2023-01-17T23:22:29.962Z,2.47
2023-01-17T23:25:32.104Z,1.90
2023-01-17T23:28:34.260Z,2.10
2023-01-17T23:31:36.751Z,1.88
2023-01-17T23:34:38.921Z,2.00
2023-01-17T23:37:59.822Z,1.80
2023-01-17T23:41:21.069Z,1.90
2023-01-17T23:44:23.434Z,1.90
2023-01-17T23:47:25.592Z,1.50
2023-01-17T23:50:27.867Z,2.10
2023-01-17T23:53:30.033Z,1.85
2023-01-17T23:56:32.169Z,1.50
2023-01-17T23:59:34.329Z,2.00
